Time;durP1;ratioP1;P1;durP2;ratioP2;P2;SDS_P1;SDS_P2;PMS_P1;PMS_P2;Temp;Humidity;BMP_temperature;BMP_pressure;BME280_temperature;BME280_humidity;BME280_pressure;Samples;Min_cycle;Max_cycle;Signal;HPM_P1;HPM_P2
2023/04/26 00:00:55;;;;;;;15.07;5.63;;;4.80;99.90;;;;;;2603130;54;20081;31
2023/04/26 00:03:33;;;;;;;17.55;5.40;;;4.70;99.90;;;;;;2700601;39;21606;31
2023/04/26 00:06:13;;;;;;;10.45;5.30;;;4.70;99.90;;;;;;2603023;54;20046;31
2023/04/26 00:08:57;;;;;;;18.75;6.40;;;4.60;99.90;;;;;;2700594;39;20505;31
2023/04/26 00:11:35;;;;;;;12.85;5.35;;;4.60;99.90;;;;;;2621917;46;20050;31
2023/04/26 00:14:10;;;;;;;15.73;5.78;;;4.60;99.90;;;;;;2712439;39;22373;31
2023/04/26 00:16:51;;;;;;;11.10;5.65;;;4.60;99.90;;;;;;2616079;46;20035;31
2023/04/26 00:19:31;;;;;;;11.13;5.17;;;4.60;99.90;;;;;;2603187;54;20578;31
2023/04/26 00:22:09;;;;;;;11.00;5.80;;;4.50;99.90;;;;;;2602305;54;21115;31
2023/04/26 00:24:53;;;;;;;;;;;4.50;99.90;;;;;;2621620;47;20022;31
2023/04/26 00:27:30;;;;;;;13.53;4.67;;;4.50;99.90;;;;;;2621495;47;20728;31
2023/04/26 00:30:12;;;;;;;10.93;5.32;;;4.50;99.90;;;;;;2602901;54;20287;31
2023/04/26 00:32:53;;;;;;;10.50;5.65;;;4.40;99.90;;;;;;2602950;54;20867;31
2023/04/26 00:35:30;;;;;;;13.95;5.10;;;4.40;99.90;;;;;;2772087;31;20628;31
2023/04/26 00:38:10;;;;;;;10.25;4.45;;;4.30;99.90;;;;;;2616897;47;20887;31
2023/04/26 00:40:50;;;;;;;15.52;5.50;;;4.30;99.90;;;;;;2602310;54;20031;31
2023/04/26 00:43:28;;;;;;;8.65;4.95;;;4.30;99.90;;;;;;2719681;39;20572;31
2023/04/26 00:46:04;;;;;;;10.55;4.50;;;4.30;99.90;;;;;;2621197;47;20897;31
2023/04/26 00:48:48;;;;;;;12.68;4.50;;;4.20;99.90;;;;;;2603051;54;20037;31
2023/04/26 00:51:27;;;;;;;13.05;5.40;;;4.20;99.90;;;;;;2602884;54;20888;31
2023/04/26 00:54:05;;;;;;;13.93;5.32;;;4.30;99.90;;;;;;2602946;54;20037;31
2023/04/26 00:56:40;;;;;;;11.23;5.45;;;4.20;99.90;;;;;;2602782;54;20757;31
2023/04/26 00:59:18;;;;;;;15.80;4.50;;;4.20;99.90;;;;;;2621373;47;20027;31
2023/04/26 01:01:54;;;;;;;14.73;5.15;;;4.20;99.90;;;;;;2602706;54;20768;31
2023/04/26 01:04:44;;;;;;;12.25;5.10;;;4.10;99.90;;;;;;2602864;54;20026;31
2023/04/26 01:07:21;;;;;;;10.30;4.68;;;4.20;99.90;;;;;;2603097;54;20030;31
2023/04/26 01:09:59;;;;;;;16.83;5.25;;;4.10;99.90;;;;;;2622409;46;20050;31
2023/04/26 01:12:37;;;;;;;14.00;5.57;;;4.10;99.90;;;;;;2603654;54;20125;31
2023/04/26 01:15:26;;;;;;;13.20;4.60;;;4.00;99.90;;;;;;2602847;54;20025;31
2023/04/26 01:18:08;;;;;;;12.45;5.85;;;4.00;99.90;;;;;;2603794;54;20867;31
2023/04/26 01:20:51;;;;;;;14.43;4.78;;;3.90;99.90;;;;;;2622043;46;20101;31
2023/04/26 01:23:34;;;;;;;13.25;4.95;;;3.90;99.90;;;;;;2602653;54;20058;31
2023/04/26 01:26:11;;;;;;;14.60;5.15;;;3.90;99.90;;;;;;2603540;54;19941;31
2023/04/26 01:28:48;;;;;;;11.93;5.37;;;3.90;99.90;;;;;;2603695;54;20184;31
2023/04/26 01:31:25;;;;;;;11.60;5.50;;;3.90;99.90;;;;;;2613682;46;20030;31
2023/04/26 01:34:08;;;;;;;13.60;5.57;;;3.90;99.90;;;;;;2602762;54;20030;31
2023/04/26 01:36:44;;;;;;;14.90;5.57;;;3.80;99.90;;;;;;2603601;54;20847;31
2023/04/26 01:39:30;;;;;;;14.90;6.00;;;3.70;99.90;;;;;;2603483;54;20862;31
2023/04/26 01:42:08;;;;;;;12.10;4.90;;;3.70;99.90;;;;;;2609830;46;20030;31
2023/04/26 01:44:48;;;;;;;13.65;5.32;;;3.60;99.90;;;;;;2603378;54;20038;31
2023/04/26 01:47:25;;;;;;;11.68;4.45;;;3.70;99.90;;;;;;2603457;54;20026;31
2023/04/26 01:50:00;;;;;;;12.83;4.47;;;3.60;99.90;;;;;;2614346;46;20096;31
2023/04/26 01:52:37;;;;;;;10.10;4.38;;;3.70;99.90;;;;;;2621171;46;20065;31
2023/04/26 01:55:17;;;;;;;9.63;4.00;;;3.60;99.90;;;;;;2603388;54;20781;31
2023/04/26 01:58:00;;;;;;;11.35;3.90;;;3.60;99.90;;;;;;2607400;46;20883;31
2023/04/26 02:00:37;;;;;;;9.23;4.30;;;3.60;99.90;;;;;;2603629;54;20764;31
2023/04/26 02:03:15;;;;;;;;;;;3.60;99.90;;;;;;2702125;39;21646;31
2023/04/26 02:05:56;;;;;;;9.32;3.67;;;3.60;99.90;;;;;;2622025;46;19935;31
2023/04/26 02:08:33;;;;;;;11.57;3.95;;;3.50;99.90;;;;;;2602636;54;20100;31
2023/04/26 02:11:15;;;;;;;8.52;3.88;;;3.50;99.90;;;;;;2603562;54;20052;31
2023/04/26 02:13:51;;;;;;;9.20;4.47;;;3.50;99.90;;;;;;2603071;54;21247;31
2023/04/26 02:16:31;;;;;;;9.95;3.95;;;3.40;99.90;;;;;;2621985;46;20038;31
2023/04/26 02:19:12;;;;;;;11.40;4.07;;;3.40;99.90;;;;;;2772577;31;20553;31
2023/04/26 02:21:55;;;;;;;14.23;4.22;;;3.40;99.90;;;;;;2602612;54;20944;31
2023/04/26 02:24:30;;;;;;;9.77;3.95;;;3.40;99.90;;;;;;2603252;54;20672;31
2023/04/26 02:27:13;;;;;;;9.00;4.10;;;3.30;99.90;;;;;;2621629;46;19954;31
2023/04/26 02:32:28;;;;;;;10.48;4.22;;;3.30;99.90;;;;;;2602849;54;20030;31
2023/04/26 02:35:09;;;;;;;8.30;3.77;;;3.30;99.90;;;;;;2603254;54;20895;31
2023/04/26 02:37:48;;;;;;;10.90;3.88;;;3.20;99.90;;;;;;2621678;46;20032;31
2023/04/26 02:40:25;;;;;;;10.70;4.40;;;3.30;99.90;;;;;;2602646;54;20778;31
2023/04/26 02:43:06;;;;;;;9.33;4.13;;;3.20;99.90;;;;;;2602587;54;20034;31
2023/04/26 02:45:44;;;;;;;9.10;3.80;;;3.30;99.90;;;;;;2602544;54;20754;31
2023/04/26 02:48:22;;;;;;;9.73;3.65;;;3.20;99.90;;;;;;2602479;54;20879;31
2023/04/26 02:50:59;;;;;;;8.25;3.70;;;3.10;99.90;;;;;;2602681;54;20923;31
2023/04/26 02:53:37;;;;;;;10.30;4.10;;;3.20;99.90;;;;;;2602476;54;20030;31
2023/04/26 02:56:18;;;;;;;8.00;3.45;;;3.20;99.90;;;;;;2602862;54;20270;31
2023/04/26 02:58:58;;;;;;;14.10;3.83;;;3.20;99.90;;;;;;2609382;46;20022;31
2023/04/26 03:01:34;;;;;;;10.75;3.97;;;3.20;99.90;;;;;;2603273;54;20085;31
2023/04/26 03:04:10;;;;;;;;;;;3.20;99.90;;;;;;2603379;54;20741;31
2023/04/26 03:06:46;;;;;;;8.75;3.70;;;3.10;99.90;;;;;;2621847;46;21322;31
2023/04/26 03:09:29;;;;;;;10.60;3.90;;;3.10;99.90;;;;;;2621431;46;20034;31
2023/04/26 03:12:07;;;;;;;9.52;4.40;;;3.00;99.90;;;;;;2701797;39;20512;31
2023/04/26 03:14:47;;;;;;;9.82;4.22;;;3.00;99.90;;;;;;2602776;54;20030;31
2023/04/26 03:17:23;;;;;;;8.43;4.23;;;3.00;99.90;;;;;;2701814;39;20501;31
2023/04/26 03:20:00;;;;;;;;;;;3.10;99.90;;;;;;2604010;54;21077;31
2023/04/26 03:22:36;;;;;;;12.50;4.90;;;3.00;99.90;;;;;;2602830;54;19941;31
2023/04/26 03:25:15;;;;;;;15.50;5.50;;;3.00;99.90;;;;;;2603102;54;20876;31
2023/04/26 03:27:55;;;;;;;9.43;5.40;;;3.00;99.90;;;;;;2602618;54;20164;31
2023/04/26 03:30:34;;;;;;;11.70;4.75;;;3.00;99.90;;;;;;2611154;46;20208;31
2023/04/26 03:33:15;;;;;;;12.38;4.47;;;3.00;99.90;;;;;;2602596;54;20847;31
2023/04/26 03:35:54;;;;;;;11.05;4.35;;;3.00;99.90;;;;;;2621791;46;20816;31
2023/04/26 03:38:30;;;;;;;10.55;4.18;;;3.00;99.90;;;;;;2621741;46;20027;31
2023/04/26 03:41:09;;;;;;;;;;;3.10;99.90;;;;;;2603364;54;20839;31
2023/04/26 03:43:47;;;;;;;8.63;3.67;;;3.10;99.90;;;;;;2603068;54;20834;31
2023/04/26 03:46:29;;;;;;;7.35;3.95;;;3.10;99.90;;;;;;2617914;46;20318;31
2023/04/26 03:49:06;;;;;;;7.32;3.35;;;3.00;99.90;;;;;;2620796;46;20029;31
2023/04/26 03:51:44;;;;;;;8.30;3.20;;;3.10;99.90;;;;;;2603050;54;20031;31
2023/04/26 03:54:19;;;;;;;10.73;3.72;;;3.10;99.90;;;;;;2621665;46;20895;31
2023/04/26 03:56:55;;;;;;;7.95;3.58;;;3.00;99.90;;;;;;2602960;54;20898;31
2023/04/26 03:59:33;;;;;;;7.82;3.58;;;3.10;99.90;;;;;;2603123;54;20022;31
2023/04/26 04:02:14;;;;;;;11.35;4.00;;;3.10;99.90;;;;;;2603023;54;20768;31
2023/04/26 04:04:52;;;;;;;8.68;4.05;;;3.10;99.90;;;;;;2602369;54;20100;31
2023/04/26 04:07:31;;;;;;;11.20;4.13;;;3.20;99.90;;;;;;2719823;39;21644;31
2023/04/26 04:10:09;;;;;;;8.50;3.42;;;3.20;99.90;;;;;;2602910;54;20950;31
2023/04/26 04:12:46;;;;;;;8.25;3.25;;;3.40;99.90;;;;;;2602269;54;20018;31
2023/04/26 04:15:21;;;;;;;;;;;3.50;99.90;;;;;;2620973;46;20018;31
2023/04/26 04:18:04;;;;;;;8.93;3.60;;;3.70;99.90;;;;;;2603031;54;20507;31
2023/04/26 04:20:44;;;;;;;6.78;3.25;;;3.90;99.90;;;;;;2602987;54;20050;31
2023/04/26 04:23:20;;;;;;;9.38;3.40;;;4.00;99.90;;;;;;2602895;54;20762;31
2023/04/26 04:25:57;;;;;;;8.45;3.33;;;4.20;99.90;;;;;;2602221;54;20035;31
2023/04/26 04:28:34;;;;;;;5.28;3.13;;;4.20;99.90;;;;;;2602937;54;20922;31
2023/04/26 04:31:11;;;;;;;7.15;3.30;;;4.30;99.90;;;;;;2602632;54;20931;31
2023/04/26 04:33:52;;;;;;;7.35;3.40;;;4.30;99.90;;;;;;2621304;47;20077;31
2023/04/26 04:36:32;;;;;;;5.18;2.63;;;4.20;99.90;;;;;;2602017;54;20027;31
2023/04/26 04:39:14;;;;;;;7.97;2.67;;;4.30;99.90;;;;;;2606474;47;20033;31
2023/04/26 04:41:57;;;;;;;7.88;2.80;;;4.30;99.90;;;;;;2602411;54;20912;31
2023/04/26 04:44:32;;;;;;;10.38;3.05;;;4.20;99.90;;;;;;2616587;46;20034;31
2023/04/26 04:47:08;;;;;;;12.23;3.70;;;4.30;99.90;;;;;;2603909;54;20026;31
2023/04/26 04:49:47;;;;;;;11.90;3.00;;;4.40;99.90;;;;;;2603786;54;20034;31
2023/04/26 04:52:29;;;;;;;6.18;2.08;;;4.60;99.90;;;;;;2603598;54;20050;31
2023/04/26 04:55:06;;;;;;;8.50;2.50;;;4.80;99.90;;;;;;2603801;54;20866;31
2023/04/26 04:57:46;;;;;;;5.60;2.00;;;4.90;99.90;;;;;;2603803;54;20030;31
2023/04/26 05:00:24;;;;;;;7.07;2.13;;;5.10;99.90;;;;;;2603075;54;21012;31
2023/04/26 05:03:09;;;;;;;5.47;2.00;;;5.20;99.90;;;;;;2603644;54;20030;31
2023/04/26 05:05:51;;;;;;;6.28;1.67;;;5.50;99.90;;;;;;2621839;46;21205;31
2023/04/26 05:08:31;;;;;;;6.67;2.07;;;5.70;99.90;;;;;;2603690;54;20038;31
2023/04/26 05:11:14;;;;;;;10.27;2.53;;;6.00;99.90;;;;;;2603690;54;20235;31
2023/04/26 05:13:54;;;;;;;8.13;1.98;;;6.60;99.90;;;;;;2603679;54;20031;31
2023/04/26 05:16:47;;;;;;;14.23;2.28;;;6.90;99.90;;;;;;2622114;46;20576;31
2023/04/26 05:19:29;;;;;;;7.93;2.17;;;7.00;99.90;;;;;;2603811;54;20022;31
2023/04/26 05:24:47;;;;;;;6.90;3.28;;;7.20;99.90;;;;;;2603707;54;20219;31
2023/04/26 05:27:25;;;;;;;5.95;1.63;;;7.30;99.90;;;;;;2622265;46;20813;31
2023/04/26 05:30:21;;;;;;;5.35;1.40;;;7.40;99.90;;;;;;2603414;54;20038;31
2023/04/26 05:33:39;;;;;;;6.97;1.90;;;7.40;99.90;;;;;;2603771;54;20883;31
2023/04/26 05:36:35;;;;;;;9.13;1.98;;;7.50;99.90;;;;;;2603712;54;20842;31
2023/04/26 05:42:06;;;;;;;7.68;1.58;;;7.80;99.90;;;;;;2603544;54;20090;31
2023/04/26 05:54:33;;;;;;;7.15;1.55;;;8.60;99.90;;;;;;2603485;54;21584;31
2023/04/26 06:00:28;;;;;;;5.32;1.23;;;9.10;99.90;;;;;;2603813;54;20054;31
2023/04/26 06:07:08;;;;;;;10.45;2.40;;;9.40;99.90;;;;;;2622103;46;20098;31
2023/04/26 06:09:55;;;;;;;5.68;1.08;;;9.70;99.90;;;;;;2603369;54;20751;31
2023/04/26 06:12:36;;;;;;;7.20;1.35;;;9.80;99.90;;;;;;2621976;46;20034;31
2023/04/26 06:15:18;;;;;;;6.43;1.45;;;10.00;99.90;;;;;;2701931;39;21650;31
2023/04/26 06:18:17;;;;;;;6.93;1.33;;;10.10;99.90;;;;;;2707089;39;21633;31
2023/04/26 06:24:36;;;;;;;7.15;1.20;;;10.40;99.90;;;;;;2603591;54;20839;31
2023/04/26 06:27:20;;;;;;;10.57;1.55;;;10.50;99.90;;;;;;2603424;54;20886;31
2023/04/26 06:32:40;;;;;;;7.40;1.70;;;10.80;99.90;;;;;;2603533;54;20800;31
2023/04/26 06:35:26;;;;;;;6.32;1.38;;;11.00;99.90;;;;;;2603485;54;20730;31
2023/04/26 06:38:15;;;;;;;7.47;1.40;;;10.80;99.90;;;;;;2603634;54;20029;31
2023/04/26 06:41:07;;;;;;;6.88;1.08;;;11.00;99.90;;;;;;2603189;54;20033;31
2023/04/26 06:43:54;;;;;;;14.37;1.80;;;11.10;99.90;;;;;;2603687;54;20057;31
2023/04/26 06:46:42;;;;;;;7.33;1.70;;;11.20;99.90;;;;;;2603471;54;20585;31
2023/04/26 06:49:24;;;;;;;5.65;1.15;;;11.50;99.90;;;;;;2621970;46;19957;31
2023/04/26 06:52:07;;;;;;;4.15;1.10;;;11.70;99.90;;;;;;2621999;46;20891;31
2023/04/26 06:55:19;;;;;;;8.35;1.40;;;12.00;99.90;;;;;;2603820;54;20941;31
2023/04/26 06:57:58;;;;;;;12.80;1.70;;;11.60;99.90;;;;;;2603182;54;20030;31
2023/04/26 07:00:46;;;;;;;6.53;1.45;;;11.60;99.90;;;;;;2701815;39;20486;31
2023/04/26 07:03:30;;;;;;;6.75;1.17;;;11.50;99.90;;;;;;2621632;46;20033;31
2023/04/26 07:09:06;;;;;;;6.55;0.95;;;11.70;99.90;;;;;;2603489;54;20085;31
2023/04/26 07:11:49;;;;;;;4.60;0.95;;;11.90;99.90;;;;;;2621861;46;20899;31
2023/04/26 07:14:28;;;;;;;7.75;1.25;;;12.00;99.90;;;;;;2616862;46;20093;31
2023/04/26 07:17:05;;;;;;;10.35;1.50;;;12.00;99.90;;;;;;2602689;54;20022;31
2023/04/26 07:19:43;;;;;;;6.65;1.10;;;12.30;99.90;;;;;;2603301;54;20947;31
2023/04/26 07:22:31;;;;;;;8.65;1.20;;;12.30;99.90;;;;;;2621883;46;20034;31
2023/04/26 07:25:29;;;;;;;;;;;12.50;99.90;;;;;;2621842;46;20831;31
2023/04/26 07:34:46;;;;;;;5.85;1.10;;;12.80;99.90;;;;;;2603764;54;20871;31
2023/04/26 07:40:59;;;;;;;6.70;2.00;;;12.90;99.90;;;;;;2603125;54;20951;31
2023/04/26 07:50:24;;;;;;;5.95;0.82;;;11.80;99.90;;;;;;2602866;54;20958;31
2023/04/26 07:56:47;;;;;;;8.68;1.10;;;11.30;99.90;;;;;;2602407;54;20054;31
2023/04/26 07:59:56;;;;;;;7.40;1.17;;;11.30;99.90;;;;;;2791286;31;21632;31
2023/04/26 08:02:53;;;;;;;4.75;1.00;;;11.60;99.90;;;;;;2603340;54;20856;31
2023/04/26 08:15:07;;;;;;;6.70;1.10;;;11.30;99.90;;;;;;2602925;54;20029;31
2023/04/26 08:18:06;;;;;;;9.00;0.93;;;11.10;99.90;;;;;;2602969;54;20056;31
2023/04/26 08:20:43;;;;;;;4.10;0.95;;;10.90;99.90;;;;;;2603090;54;20033;31
2023/04/26 08:23:21;;;;;;;8.65;1.00;;;10.80;99.90;;;;;;2602356;54;20931;31
2023/04/26 08:38:35;;;;;;;4.43;0.63;;;11.20;99.90;;;;;;2602421;54;20031;31
2023/04/26 08:44:28;;;;;;;4.20;0.80;;;11.10;99.90;;;;;;2602944;54;20162;31
2023/04/26 08:47:43;;;;;;;7.70;1.30;;;10.80;99.90;;;;;;2606496;46;20905;31
2023/04/26 08:50:26;;;;;;;9.48;0.80;;;11.00;99.90;;;;;;2602770;54;20831;31
2023/04/26 08:53:04;;;;;;;4.28;0.68;;;11.10;99.90;;;;;;2602793;54;20766;31
2023/04/26 08:55:53;;;;;;;14.10;0.80;;;11.00;99.90;;;;;;2603030;54;20034;31
2023/04/26 08:59:16;;;;;;;5.90;1.05;;;10.90;99.90;;;;;;2602863;54;20034;31
2023/04/26 09:05:25;;;;;;;6.47;0.80;;;10.80;99.90;;;;;;2604337;47;20038;31
2023/04/26 09:11:04;;;;;;;3.55;0.70;;;11.70;99.90;;;;;;2620860;47;20023;31
2023/04/26 09:13:51;;;;;;;5.72;0.70;;;11.80;99.90;;;;;;2602914;54;20085;31
2023/04/26 09:16:56;;;;;;;4.72;0.70;;;11.80;99.90;;;;;;2719272;39;20517;31
2023/04/26 09:19:41;;;;;;;5.40;0.80;;;11.50;99.90;;;;;;2772488;31;21519;31
2023/04/26 09:25:19;;;;;;;3.90;0.60;;;11.90;99.90;;;;;;2701232;39;21614;31
2023/04/26 09:28:02;;;;;;;2.88;0.75;;;12.60;99.90;;;;;;2621808;47;20048;31
2023/04/26 09:30:45;;;;;;;5.00;1.00;;;13.00;99.90;;;;;;2603803;54;20023;31
2023/04/26 09:33:32;;;;;;;5.22;0.65;;;12.90;99.90;;;;;;2602977;54;20026;31
2023/04/26 09:36:17;;;;;;;5.20;1.10;;;12.60;99.90;;;;;;2603482;54;20899;31
2023/04/26 09:41:52;;;;;;;4.43;1.23;;;12.20;99.90;;;;;;2603495;54;20145;31
2023/04/26 09:47:50;;;;;;;4.45;0.68;;;12.70;99.90;;;;;;2701944;39;21607;31
2023/04/26 09:50:56;;;;;;;3.30;0.75;;;12.90;99.90;;;;;;2603715;54;20033;31
2023/04/26 10:02:56;;;;;;;3.15;0.77;;;13.40;99.90;;;;;;2606346;46;20031;31
2023/04/26 10:08:33;;;;;;;;;;;;;;;;;;;;;
2023/04/26 10:17:48;;;;;;;2.20;0.43;;;11.50;99.90;;;;;;2603564;54;21228;31
2023/04/26 10:20:44;;;;;;;;;;;;;;;;;;;;;
2023/04/26 10:26:56;;;;;;;4.60;1.30;;;11.70;99.90;;;;;;2603464;54;20030;31
2023/04/26 10:36:34;;;;;;;3.53;0.63;;;11.20;99.90;;;;;;2603692;54;20999;31
2023/04/26 10:39:37;;;;;;;1.90;0.60;;;11.20;99.90;;;;;;2603455;54;20073;31
2023/04/26 10:42:25;;;;;;;6.13;0.90;;;11.30;99.90;;;;;;2713201;39;20287;31
2023/04/26 10:45:38;;;;;;;4.90;0.75;;;11.60;99.90;;;;;;2606884;46;20032;31
2023/04/26 10:48:25;;;;;;;4.67;0.67;;;11.60;99.90;;;;;;2603169;54;20824;31
2023/04/26 10:51:14;;;;;;;4.80;0.80;;;11.50;99.90;;;;;;2602736;54;19985;31
2023/04/26 10:54:03;;;;;;;2.93;0.70;;;11.40;99.90;;;;;;2620808;46;20875;31
2023/04/26 10:57:01;;;;;;;4.03;0.68;;;11.20;99.90;;;;;;2602739;54;20042;31
2023/04/26 10:59:56;;;;;;;4.20;0.80;;;11.10;99.90;;;;;;2603211;54;20028;31
2023/04/26 11:05:47;;;;;;;3.97;0.70;;;10.90;99.90;;;;;;2603143;54;20524;31
2023/04/26 11:11:34;;;;;;;6.78;1.58;;;11.50;99.90;;;;;;2603394;54;20041;31
2023/04/26 11:14:30;;;;;;;4.57;0.60;;;11.90;99.90;;;;;;2603256;54;20038;31
2023/04/26 11:17:29;;;;;;;4.85;0.70;;;12.00;99.90;;;;;;2603313;54;20030;31
2023/04/26 11:20:20;;;;;;;3.30;0.65;;;12.20;99.90;;;;;;2627672;46;20089;31
2023/04/26 11:23:03;;;;;;;5.15;0.70;;;12.10;99.90;;;;;;2602584;54;20019;31
2023/04/26 11:29:03;;;;;;;4.20;0.55;;;12.10;99.90;;;;;;2603096;54;20026;31
2023/04/26 11:31:57;;;;;;;6.90;0.80;;;12.00;99.20;;;;;;2621636;46;20097;31
2023/04/26 11:34:50;;;;;;;8.10;0.60;;;11.70;98.30;;;;;;2621619;46;20044;31
2023/04/26 11:37:26;;;;;;;4.50;0.75;;;11.60;98.30;;;;;;2603394;54;20868;31
2023/04/26 11:40:07;;;;;;;4.95;0.73;;;11.50;98.10;;;;;;2603316;54;20781;31
2023/04/26 11:42:48;;;;;;;4.30;0.60;;;11.60;98.90;;;;;;2603243;54;20026;31
2023/04/26 11:48:32;;;;;;;2.67;0.45;;;12.10;99.40;;;;;;2603494;54;20872;31
2023/04/26 11:51:13;;;;;;;2.58;0.70;;;12.30;97.20;;;;;;2602342;54;20835;31
2023/04/26 11:54:00;;;;;;;4.50;0.80;;;12.50;98.00;;;;;;2611183;46;20149;31
2023/04/26 11:56:46;;;;;;;5.25;0.52;;;12.60;95.80;;;;;;2603262;54;20065;31
2023/04/26 11:59:29;;;;;;;2.63;0.70;;;12.50;95.90;;;;;;2602894;54;20867;31
2023/04/26 12:02:09;;;;;;;2.53;0.73;;;12.40;96.00;;;;;;2603183;54;20645;31
2023/04/26 12:07:48;;;;;;;7.20;1.60;;;11.80;96.00;;;;;;2621821;46;20029;31
2023/04/26 12:14:21;;;;;;;4.10;1.05;;;11.40;96.90;;;;;;2700712;39;21381;31
2023/04/26 12:23:07;;;;;;;5.65;1.25;;;11.10;99.90;;;;;;2608898;47;20030;31
2023/04/26 12:26:00;;;;;;;4.72;1.25;;;11.00;99.90;;;;;;2603042;54;20094;31
2023/04/26 12:28:57;;;;;;;5.00;0.80;;;10.80;99.90;;;;;;2602843;54;20027;31
2023/04/26 12:34:10;;;;;;;5.23;1.27;;;10.80;99.90;;;;;;2602747;54;20033;31
2023/04/26 12:36:56;;;;;;;4.20;1.08;;;10.80;99.90;;;;;;2625131;47;20022;31
2023/04/26 12:42:19;;;;;;;5.07;0.67;;;10.60;99.90;;;;;;2603024;54;20026;31
2023/04/26 12:45:17;;;;;;;6.32;1.00;;;10.50;99.90;;;;;;2602990;54;20026;31
2023/04/26 12:47:55;;;;;;;5.57;0.73;;;10.50;99.90;;;;;;2621244;47;20033;31
2023/04/26 12:50:47;;;;;;;3.67;0.70;;;10.40;99.90;;;;;;2621507;47;20038;31
2023/04/26 12:53:26;;;;;;;4.30;0.60;;;10.30;99.90;;;;;;2701661;39;20596;31
2023/04/26 12:56:04;;;;;;;3.45;0.85;;;10.40;99.90;;;;;;2602949;54;20026;31
2023/04/26 12:58:47;;;;;;;3.63;0.73;;;10.60;99.90;;;;;;2621159;47;20048;31
2023/04/26 13:01:25;;;;;;;4.30;0.80;;;10.80;99.90;;;;;;2621176;47;19946;31
2023/04/26 13:04:05;;;;;;;4.77;0.60;;;11.00;99.90;;;;;;2622122;47;20034;31
2023/04/26 13:06:46;;;;;;;3.08;0.52;;;11.10;99.90;;;;;;2783727;31;20102;31
2023/04/26 13:09:22;;;;;;;3.80;0.75;;;11.40;99.90;;;;;;2603703;54;20033;31
2023/04/26 13:12:22;;;;;;;6.22;0.68;;;11.50;99.90;;;;;;2603662;54;20562;31
2023/04/26 13:18:38;;;;;;;4.05;0.77;;;11.80;99.90;;;;;;2720664;39;21602;31
2023/04/26 13:21:24;;;;;;;3.72;0.60;;;11.90;99.90;;;;;;2603765;54;20026;31
2023/04/26 13:24:09;;;;;;;2.75;0.60;;;12.00;99.90;;;;;;2603555;54;20113;31
2023/04/26 13:26:52;;;;;;;4.43;0.65;;;12.10;99.90;;;;;;2621759;46;20105;31
2023/04/26 13:29:31;;;;;;;3.30;0.60;;;12.20;99.90;;;;;;2702301;39;21550;31
2023/04/26 13:32:16;;;;;;;5.72;0.95;;;12.30;99.90;;;;;;2603629;54;20924;31
2023/04/26 13:34:59;;;;;;;2.15;0.40;;;12.50;99.90;;;;;;2603537;54;20952;31
2023/04/26 13:37:37;;;;;;;3.15;0.60;;;12.60;99.90;;;;;;2603691;54;21579;31
2023/04/26 13:40:20;;;;;;;3.05;0.65;;;12.60;99.90;;;;;;2622309;46;20037;31
2023/04/26 13:45:32;;;;;;;7.07;0.93;;;12.30;99.90;;;;;;2607423;46;21580;31
2023/04/26 13:48:17;;;;;;;4.43;0.75;;;12.10;99.90;;;;;;2622024;46;20921;31
2023/04/26 13:50:55;;;;;;;2.65;0.77;;;11.90;99.90;;;;;;2607293;46;20875;31
2023/04/26 13:53:46;;;;;;;4.30;1.00;;;11.60;99.90;;;;;;2603692;54;20026;31
2023/04/26 13:59:40;;;;;;;6.32;1.58;;;11.10;99.90;;;;;;2622151;46;20880;31
2023/04/26 14:02:23;;;;;;;4.05;1.00;;;10.90;99.90;;;;;;2603403;54;20032;31
2023/04/26 14:05:05;;;;;;;2.47;0.70;;;10.90;99.90;;;;;;2701927;39;20584;31
2023/04/26 14:08:02;;;;;;;3.83;0.82;;;10.90;99.90;;;;;;2603280;54;20874;31
2023/04/26 14:17:31;;;;;;;3.63;1.10;;;10.90;99.90;;;;;;2603358;54;20042;31
2023/04/26 14:20:12;;;;;;;2.70;0.70;;;11.10;99.90;;;;;;2603484;54;20125;31
2023/04/26 14:22:57;;;;;;;1.90;0.60;;;11.20;99.90;;;;;;2602828;54;20773;31
2023/04/26 14:25:45;;;;;;;2.15;1.08;;;11.30;99.90;;;;;;2701977;39;20456;31
2023/04/26 14:28:39;;;;;;;3.03;0.88;;;11.20;99.90;;;;;;2603597;54;20908;31
2023/04/26 14:31:23;;;;;;;5.32;0.98;;;11.10;99.90;;;;;;2602884;54;20023;31
2023/04/26 14:34:23;;;;;;;7.05;0.80;;;11.10;99.90;;;;;;2701998;39;20504;31
2023/04/26 14:37:14;;;;;;;3.13;0.80;;;11.10;99.90;;;;;;2702175;39;21551;31
2023/04/26 14:43:08;;;;;;;2.50;0.80;;;11.30;99.90;;;;;;2603467;54;21570;31
2023/04/26 14:45:58;;;;;;;2.92;1.00;;;11.30;99.90;;;;;;2603301;54;20876;31
2023/04/26 14:48:51;;;;;;;3.83;1.02;;;11.40;99.90;;;;;;2603286;54;20030;31
2023/04/26 14:51:32;;;;;;;2.88;0.82;;;11.50;99.90;;;;;;2603431;54;20034;31
2023/04/26 14:56:59;;;;;;;1.65;0.68;;;11.50;99.90;;;;;;2602313;54;20018;31
2023/04/26 14:59:48;;;;;;;2.05;0.55;;;11.30;99.90;;;;;;2603485;54;20890;31
2023/04/26 15:02:31;;;;;;;6.90;1.10;;;11.20;99.90;;;;;;2603253;54;20073;31
2023/04/26 15:08:21;;;;;;;2.95;1.15;;;11.00;99.90;;;;;;2603586;54;20042;31
2023/04/26 15:13:47;;;;;;;3.05;1.00;;;10.80;99.90;;;;;;2603368;54;20032;31
2023/04/26 15:16:36;;;;;;;3.20;1.33;;;10.80;99.90;;;;;;2619388;46;20023;31
2023/04/26 15:19:46;;;;;;;;;;;10.70;99.90;;;;;;2603282;54;20945;31
2023/04/26 15:31:09;;;;;;;3.55;1.02;;;11.00;99.90;;;;;;2603133;54;20759;31
2023/04/26 15:33:51;;;;;;;3.63;1.00;;;11.10;99.90;;;;;;2603312;54;20022;31
2023/04/26 15:42:43;;;;;;;3.07;0.80;;;11.20;99.90;;;;;;2701561;39;21695;31
2023/04/26 15:45:37;;;;;;;4.13;1.02;;;11.10;99.90;;;;;;2602407;54;20050;31
2023/04/26 15:48:33;;;;;;;3.38;0.90;;;11.10;99.90;;;;;;2621680;46;20108;31
2023/04/26 15:54:39;;;;;;;2.60;0.80;;;10.80;99.90;;;;;;2772943;31;21742;31
2023/04/26 15:57:20;;;;;;;4.47;1.13;;;10.70;99.90;;;;;;2603119;54;20030;31
2023/04/26 16:03:02;;;;;;;4.32;1.20;;;10.50;99.90;;;;;;2614713;46;20120;31
2023/04/26 16:05:49;;;;;;;8.95;2.00;;;10.40;99.90;;;;;;2602313;54;20848;31
2023/04/26 16:11:23;;;;;;;11.77;1.50;;;10.20;99.90;;;;;;2602979;54;20940;31
2023/04/26 16:14:03;;;;;;;6.20;1.30;;;10.20;99.90;;;;;;2602929;54;20752;31
2023/04/26 16:16:47;;;;;;;5.60;1.15;;;10.20;99.90;;;;;;2603301;54;20246;31
2023/04/26 16:19:44;;;;;;;3.27;1.10;;;10.20;99.90;;;;;;2602893;54;20033;31
2023/04/26 16:28:28;;;;;;;4.35;1.52;;;10.20;99.90;;;;;;2603031;54;20033;31
2023/04/26 16:34:08;;;;;;;3.45;1.08;;;10.20;99.90;;;;;;2602931;54;20026;31
2023/04/26 16:37:05;;;;;;;2.38;0.95;;;10.20;99.90;;;;;;2602921;54;20123;31
2023/04/26 16:43:35;;;;;;;6.97;1.40;;;10.10;99.90;;;;;;2622074;46;20026;31
2023/04/26 16:49:40;;;;;;;3.25;0.90;;;10.00;99.90;;;;;;2702322;39;21445;31
2023/04/26 16:55:35;;;;;;;1.90;0.75;;;9.80;99.90;;;;;;2603749;54;20764;31
2023/04/26 16:58:19;;;;;;;4.03;1.20;;;9.70;99.90;;;;;;2603727;54;20054;31
2023/04/26 17:01:15;;;;;;;4.43;0.73;;;9.60;99.90;;;;;;2603973;54;20031;31
2023/04/26 17:03:56;;;;;;;4.43;1.02;;;9.60;99.90;;;;;;2603802;54;20030;31
2023/04/26 17:06:59;;;;;;;6.65;1.55;;;9.50;99.90;;;;;;2603713;54;20946;31
2023/04/26 17:09:42;;;;;;;5.25;1.95;;;9.40;99.90;;;;;;2603918;54;20022;31
2023/04/26 17:12:56;;;;;;;4.05;1.45;;;9.40;99.90;;;;;;2603513;54;20161;31
2023/04/26 17:15:54;;;;;;;4.53;1.52;;;9.30;99.90;;;;;;2603881;54;20030;31
2023/04/26 17:18:57;;;;;;;7.85;1.25;;;9.20;99.90;;;;;;2607900;46;20093;31
2023/04/26 17:21:46;;;;;;;4.07;1.13;;;9.20;99.90;;;;;;2622359;46;20026;31
2023/04/26 17:24:28;;;;;;;11.40;4.35;;;9.10;99.90;;;;;;2603697;54;19956;31
2023/04/26 17:27:23;;;;;;;12.95;2.42;;;9.10;99.90;;;;;;2603844;54;20938;31
2023/04/26 17:33:41;;;;;;;4.18;1.55;;;9.10;99.90;;;;;;2603631;54;20056;31
2023/04/26 17:39:16;;;;;;;5.40;1.85;;;9.00;99.90;;;;;;2603641;54;20678;31
2023/04/26 18:01:29;;;;;;;4.32;1.77;;;8.90;99.90;;;;;;2603365;54;19957;31
2023/04/26 18:07:28;;;;;;;5.60;1.85;;;8.80;99.90;;;;;;2603366;54;20840;31
2023/04/26 18:12:56;;;;;;;4.95;1.80;;;8.60;99.90;;;;;;2602863;54;22489;31
2023/04/26 18:15:34;;;;;;;5.03;1.75;;;8.60;99.90;;;;;;2602705;54;20988;31
2023/04/26 18:18:19;;;;;;;3.35;1.80;;;8.50;99.90;;;;;;2617202;46;20034;31
2023/04/26 18:21:01;;;;;;;5.20;2.60;;;8.50;99.90;;;;;;2602901;54;20925;31
2023/04/26 18:23:39;;;;;;;7.57;2.20;;;8.30;99.90;;;;;;2603649;54;20023;31
2023/04/26 18:26:24;;;;;;;9.02;2.65;;;8.30;99.90;;;;;;2603505;54;20117;31
2023/04/26 18:29:03;;;;;;;8.73;3.15;;;8.30;99.90;;;;;;2603240;54;20109;31
2023/04/26 18:31:40;;;;;;;7.18;3.40;;;8.30;99.90;;;;;;2602641;54;20026;31
2023/04/26 18:34:25;;;;;;;6.80;2.90;;;8.20;99.90;;;;;;2602737;54;20081;31
2023/04/26 18:37:03;;;;;;;5.10;2.92;;;8.20;99.90;;;;;;2621945;46;20875;31
2023/04/26 18:39:41;;;;;;;6.95;3.00;;;8.20;99.90;;;;;;2773494;31;21575;31
2023/04/26 18:42:22;;;;;;;9.70;2.85;;;8.20;99.90;;;;;;2701058;39;20376;31
2023/04/26 18:45:04;;;;;;;8.15;3.40;;;8.20;99.90;;;;;;2701939;39;20398;31
2023/04/26 18:47:45;;;;;;;4.70;3.25;;;8.30;99.90;;;;;;2603405;54;20027;31
2023/04/26 18:50:26;;;;;;;6.87;3.97;;;8.20;99.90;;;;;;2603308;54;20097;31